Main page
METAR-TAF:

METAR-TAF

Airports :

Vijayawada International Airport

Vijayawada, India

latitude: 16-31-44N, longitude: 80-47-45E, elevation: 25 m

Current weather observation

The report was made 18 minutes ago, at 13:30 UTC
Wind 6 kt from the South
Temperature 33°C
Humidity 59%
Pressure 1006 hPa
Visibility: 6000 m

METAR: VOBZ 201330Z 17006KT 6000 NSC 33/24 Q1006 NOSIG

Time: 19:18 (13:48 UTC)

Forecast

The report was made 5 hours and 48 minutes ago, at 08:00 UTC
Forecast valid from 20 at 09 UTC to 20 at 18 UTC
Wind 8 kt from the South
Visibility: 6000 m
Few clouds at a height of 2000 ft
Scattered clouds at a height of 10000 ft
Temporary
from 20 at 09 UTC to 20 at 15 UTC
Few clouds at a height of 3000 ft, Cumulonimbus.

TAF: VOBZ 200800Z 2009/2018 17008KT 6000 FEW020 SCT100 TEMPO 2009/2015 FEW030CB

Weather observations and forecasts of more than 4000 airports (METAR and TAF reports).

The available stations are represented by yellow and red dots on the map.

Hover mouse over dot to see the name of the station.

Then click to see weather observations and forecasts.

To change the map : click on the green buttons with a black cross to zoom in, on the green button with a dash to zoom out, or on the green arrows for adjacent maps.


METAR-TAF: